EGLW weather

London Heliport
London, England, United Kingdom

Public forecast

Using degrees Celsius for public forecast. Weather courtesy of forecast.io.

METAR (pilot weather report)

Closest report is London City Airport, 9.0 nm (16.7 km) ENE. Retrieved 2019/03/24 15:20 UTC (4 minutes ago):

EGLC 241520Z AUTO 28012KT 9999 NCD 14/00 Q1028

TAF (pilot weather forecast)

Forecast is more than 12 hours old.

Closest forecast is London City Airport, 9.0 nm (16.7 km) ENE. Retrieved 2018/10/15 21:30 UTC (5 months ago):

TAF EGLC 152119Z 1521/1621 CNL